Home > Products > Valid Products > MTR

000
SAUS45 KABQ 241854
MTRTCS
METAR KTCS 241853Z AUTO 17022G30KT 10SM CLR 27/M07 A2998 RMK AO2 PK
WND 17031/1839 SLP069 T02721067 TSNO





000
SAUS45 KABQ 241854
MTRCQC
METAR KCQC 241853Z AUTO 21013G25KT 10SM CLR 22/M07 A3006 RMK AO2 PK
WND 26026/1831 SLP096 T02221067





000
SAUS45 KABQ 241704
MTRTCS
SPECI KTCS 241703Z AUTO 17009G24KT 10SM CLR 24/M05 A3000 RMK AO2
WSHFT 1643 T02441050 TSNO





000
SAUS45 KABQ 241654
MTRCQC
METAR KCQC 241653Z AUTO 31008G20KT 10SM CLR 20/M06 A3008 RMK AO2
SLP101 T02001056





000
SAUS45 KABQ 241454
MTRTCS
METAR KTCS 241453Z AUTO 17010KT 10SM CLR 21/M04 A3001 RMK AO2 SLP081
T02111039 51014 TSNO





000
SAUS45 KABQ 241454
MTRCQC
METAR KCQC 241453Z AUTO 26012KT 10SM CLR 17/M06 A3008 RMK AO2 SLP102
T01721056 51012





000
SAUS45 KABQ 241254
MTRCQC
METAR KCQC 241253Z AUTO 27007KT 10SM CLR 11/M04 A3006 RMK AO2 SLP092
T01061044





000
SAUS45 KABQ 241254
MTRTCS
METAR KTCS 241253Z AUTO 24003KT 10SM CLR 17/M04 A2998 RMK AO2 SLP071
T01671044 TSNO





000
SAUS45 KABQ 241154
MTRTCS
METAR KTCS 241153Z AUTO 23004KT 10SM CLR 16/M05 A2996 RMK AO2 SLP062
T01611050 10189 20150 53010 TSNO





000
SAUS45 KABQ 241154
MTRCQC
METAR KCQC 241153Z AUTO 30010KT 10SM CLR 08/M07 A3003 RMK AO2 SLP087
T00831072 10117 20072 51008





000
SAUS45 KABQ 241055
MTRCQC
METAR KCQC 241053Z AUTO 29010KT 10SM CLR 08/M07 A3003 RMK AO2 SLP082
T00831067





000
SAUS45 KABQ 241054
MTRTCS
METAR KTCS 241053Z AUTO 19005KT 10SM CLR 17/M06 A2994 RMK AO2 SLP057
T01671056 TSNO





000
SAUS45 KABQ 240954
MTRCQC
METAR KCQC 240953Z AUTO 29008KT 10SM CLR 09/M08 A3002 RMK AO2 SLP078
T00891078





000
SAUS45 KABQ 240854
MTRCQC
METAR KCQC 240853Z AUTO 28012KT 10SM CLR 10/M08 A3000 RMK AO2 SLP072
T01001078 58000





000
SAUS45 KABQ 240854
MTRTCS
METAR KTCS 240853Z AUTO 26005KT 10SM CLR 16/M05 A2993 RMK AO2 SLP050
T01561050 52003 TSNO





000
SAUS45 KABQ 240554
MTRCQC
METAR KCQC 240553Z AUTO 25012KT 10SM CLR 11/M09 A3001 RMK AO2 SLP075
T01061094 10233 20100 51012





000
SAUS45 KABQ 240554
MTRTCS
METAR KTCS 240553Z AUTO 28007KT 10SM CLR 19/M07 A2992 RMK AO2 SLP049
T01891067 10300 20183 51013 TSNO





000
SAUS45 KABQ 240455
MTRTCS
METAR KTCS 240453Z AUTO 29008KT 10SM CLR 20/M07 A2991 RMK AO2 SLP048
T02001067 TSNO





000
SAUS45 KABQ 240455
MTRCQC
METAR KCQC 240453Z AUTO 24010KT 10SM CLR 12/M09 A3000 RMK AO2 SLP074
T01221094





000
SAUS45 KABQ 240354
MTRTCS
METAR KTCS 240353Z AUTO 29006KT 10SM CLR 21/M08 A2989 RMK AO2 SLP041
T02111078 TSNO





000
SAUS45 KABQ 240001 COR
MTRCQC
METAR KCQC 232353Z AUTO 24016G23KT 10SM CLR 22/M08 A2996 RMK AO2 PK
WND 24029/2305 SLP065 T02221083 10244 20211 56009





000
SAUS45 KABQ 232359 COR
MTRCQC
METAR KCQC 232353Z AUTO 24016G23KT 10SM CLR 22/M08 A2996 RMK AO2 PK
WND 24029/2305 SLP065 T02221083 10244 20211 56009





000
SAUS45 KABQ 232358 COR
MTRCQC
METAR KCQC 232353Z AUTO 24016G23KT 10SM CLR 22/M08 A2996 RMK AO2 PK
WND 24029/2305 SLP065 T02221083 10244 20211 56009





000
SAUS45 KABQ 232356 COR
MTRCQC
METAR KCQC 232353Z AUTO 24016G23KT 10SM CLR 22/M08 A2996 RMK AO2 PK
WND 24029/2305 SLP065 T02221083 10244 20211 56009





000
SAUS45 KABQ 232355 COR
MTRCQC
METAR KCQC 232353Z AUTO 24016G23KT 10SM CLR 22/M08 A2996 RMK AO2 PK
WND 24029/2305 SLP065 T02221083 10244 20211 56009





000
SAUS45 KABQ 232354
MTRCQC
METAR KCQC 232353Z AUTO 24016G23KT 10SM CLR 22/M08 A2996 RMK AO2 PK
WND 24029/2305 SLP065 T02221083 10244 20211 56009





000
SAUS45 KABQ 232354
MTRTCS
METAR KTCS 232353Z AUTO 24014G24KT 10SM CLR 30/M11 A2983 RMK AO2 PK
WND 23028/2302 SLP022 T03001111 10317 20261 55004 TSNO





000
SAUS45 KABQ 232257 COR
MTRCQC
METAR KCQC 232253Z AUTO 27022G35KT 10SM FEW120 24/M07 A2996 RMK AO2
PK WND 27035/2250 SLP063 T02391072





000
SAUS45 KABQ 232256 COR
MTRCQC
METAR KCQC 232253Z AUTO 27022G35KT 10SM FEW120 24/M07 A2996 RMK AO2
PK WND 27035/2250 SLP063 T02391072





000
SAUS45 KABQ 232055 COR
MTRCQC
METAR KCQC 232053Z AUTO 27019G23KT 10SM CLR 23/M07 A2999 RMK AO2 PK
WND 25027/2009 SLP069 T02331067 58011





000
SAUS45 KABQ 232054
MTRCQC
METAR KCQC 232053Z AUTO 27019G23KT 10SM CLR 23/M07 A2999 RMK AO2 PK
WND 25027/2009 SLP069 T02331067 58011





000
SAUS45 KABQ 232054
MTRTCS
METAR KTCS 232053Z AUTO 21013G23KT 10SM CLR 31/M13 A2985 RMK AO2 PK
WND 23031/2005 SLP018 T03061128 56026 TSNO





000
SAUS45 KABQ 231854
MTRCQC
METAR KCQC 231853Z AUTO 26020G33KT 10SM CLR 22/M09 A3002 RMK AO2 PK
WND 25033/1851 SLP080 T02171094





000
SAUS45 KABQ 231854
MTRTCS
METAR KTCS 231853Z AUTO VRB05KT 10SM CLR 27/M09 A2990 RMK AO2 SLP044
T02721094 TSNO





000
SAUS45 KABQ 231758 COR
MTRCQC
METAR KCQC 231753Z AUTO 26020G28KT 10SM CLR 22/M07 A3003 RMK AO2 PK
WND 27028/1713 SLP081 T02171067 10217 20061 58006





000
SAUS45 KABQ 231755 COR
MTRCQC
METAR KCQC 231753Z AUTO 26020G28KT 10SM CLR 22/M07 A3003 RMK AO2 PK
WND 27028/1713 SLP081 T02171067 10217 20061 58006





000
SAUS45 KABQ 231554
MTRCQC
METAR KCQC 231553Z AUTO 30015G23KT 10SM CLR 18/M03 A3005 RMK AO2
SLP088 T01781028





000
SAUS45 KABQ 231454
MTRTCS
METAR KTCS 231453Z AUTO 16004KT 10SM CLR 21/M04 A2997 RMK AO2 SLP069
T02111044 51010 TSNO





000
SAUS45 KABQ 231454
MTRCQC
METAR KCQC 231453Z AUTO 29015KT 10SM CLR 17/M03 A3005 RMK AO2 SLP091
T01671028 51007





000
SAUS45 KABQ 231354
MTRCQC
METAR KCQC 231353Z AUTO 30010KT 10SM CLR 14/M03 A3005 RMK AO2 SLP088
T01441028





000
SAUS45 KABQ 231354
MTRTCS
METAR KTCS 231353Z AUTO 00000KT 10SM CLR 19/M03 A2997 RMK AO2 SLP069
T01891033 TSNO





000
SAUS45 KABQ 231255
MTRTCS
METAR KTCS 231253Z AUTO 00000KT 10SM CLR 17/M01 A2996 RMK AO2 SLP067
T01671006 TSNO





000
SAUS45 KABQ 231255
MTRCQC
METAR KCQC 231253Z AUTO 26009KT 10SM CLR 09/M02 A3004 RMK AO2 SLP090
T00941017





000
SAUS45 KABQ 231155
MTRCQC
METAR KCQC 231153Z AUTO 30011KT 10SM CLR 07/M04 A3003 RMK AO2 SLP087
T00671039 10117 20056 50004





000
SAUS45 KABQ 231154
MTRTCS
METAR KTCS 231153Z AUTO 00000KT 10SM CLR 14/M03 A2994 RMK AO2 SLP061
T01391028 10189 20133 53005 TSNO





000
SAUS45 KABQ 231055
MTRTCS
METAR KTCS 231053Z AUTO 00000KT 10SM CLR 16/M03 A2993 RMK AO2 SLP055
T01611028 TSNO





000
SAUS45 KABQ 231054
MTRCQC
METAR KCQC 231053Z AUTO 30010KT 10SM CLR 06/M04 A3003 RMK AO2 SLP088
T00611039





000
SAUS45 KABQ 230655
MTRCQC
METAR KCQC 230653Z AUTO 28012KT 10SM CLR 10/M04 A3002 RMK AO2 SLP079
T01001044 402390072





000
SAUS45 KABQ 230654
MTRTCS
METAR KTCS 230653Z AUTO 30008KT 10SM CLR 18/M04 A2993 RMK AO2 SLP052
T01781044 403060133 TSNO





000
SAUS45 KABQ 230554
MTRTCS
METAR KTCS 230553Z AUTO 28007KT 10SM CLR 19/M05 A2993 RMK AO2 SLP056
T01891050 10294 20189 50003 TSNO





000
SAUS45 KABQ 230554
MTRCQC
METAR KCQC 230553Z AUTO 26013KT 10SM CLR 12/M06 A3001 RMK AO2 SLP076
T01171056 10228 20117 50012





000
SAUS45 KABQ 230254
MTRCQC
METAR KCQC 230253Z AUTO 24011KT 10SM CLR 16/M09 A2997 RMK AO2 SLP061
T01561094 55003





000
SAUS45 KABQ 230254
MTRTCS
METAR KTCS 230253Z AUTO 25007KT 10SM CLR 24/M10 A2992 RMK AO2 SLP049
T02391100 53008 TSNO





000
SAUS45 KABQ 230154
MTRCQC
METAR KCQC 230153Z AUTO 22011KT 10SM CLR 19/M09 A2997 RMK AO2 SLP057
T01891089





000
SAUS45 KABQ 230154
MTRTCS
METAR KTCS 230153Z AUTO 24013KT 10SM CLR 27/M12 A2990 RMK AO2 SLP042
T02671117 TSNO





000
SAUS45 KABQ 230058 COR
MTRCQC
METAR KCQC 230053Z AUTO 23017KT 10SM CLR 22/M08 A2997 RMK AO2 PK WND
22029/0014 SLP061 T02171078





000
SAUS45 KABQ 230056 COR
MTRCQC
METAR KCQC 230053Z AUTO 23017KT 10SM CLR 22/M08 A2997 RMK AO2 PK WND
22029/0014 SLP061 T02171078





000
SAUS45 KABQ 230055
MTRCQC
METAR KCQC 230053Z AUTO 23017KT 10SM CLR 22/M08 A2997 RMK AO2 PK WND
22029/0014 SLP061 T02171078





000
SAUS45 KABQ 230055 COR
MTRCQC
METAR KCQC 230053Z AUTO 23017KT 10SM CLR 22/M08 A2997 RMK AO2 PK WND
22029/0014 SLP061 T02171078





000
SAUS45 KABQ 230054
MTRTCS
METAR KTCS 230053Z AUTO 26017G23KT 10SM CLR 28/M09 A2989 RMK AO2 PK
WND 26026/0029 SLP044 T02781094 TSNO





000
SAUS45 KABQ 222359 COR
MTRCQC
METAR KCQC 222353Z AUTO 23019G26KT 10SM CLR 23/M07 A2998 RMK AO2 PK
WND 25029/2254 SLP072 T02281072 10239 20211 56015





000
SAUS45 KABQ 222358 COR
MTRCQC
METAR KCQC 222353Z AUTO 23019G26KT 10SM CLR 23/M07 A2998 RMK AO2 PK
WND 25029/2254 SLP072 T02281072 10239 20211 56015





000
SAUS45 KABQ 222356 COR
MTRCQC
METAR KCQC 222353Z AUTO 23019G26KT 10SM CLR 23/M07 A2998 RMK AO2 PK
WND 25029/2254 SLP072 T02281072 10239 20211 56015





000
SAUS45 KABQ 222355
MTRCQC
METAR KCQC 222353Z AUTO 23019G26KT 10SM CLR 23/M07 A2998 RMK AO2 PK
WND 25029/2254 SLP072 T02281072 10239 20211 56015





000
SAUS45 KABQ 222355 COR
MTRCQC
METAR KCQC 222353Z AUTO 23019G26KT 10SM CLR 23/M07 A2998 RMK AO2 PK
WND 25029/2254 SLP072 T02281072 10239 20211 56015





000
SAUS45 KABQ 222354
MTRTCS
METAR KTCS 222353Z AUTO 26016G25KT 10SM CLR 29/M11 A2989 RMK AO2 PK
WND 25028/2324 SLP043 T02891106 10306 20256 58005 TSNO





000
SAUS45 KABQ 222158 COR
MTRCQC
METAR KCQC 222153Z AUTO 25024G30KT 10SM CLR 23/M08 A3002 RMK AO2 PK
WND 22030/2142 SLP073 T02331083





000
SAUS45 KABQ 222156 COR
MTRCQC
METAR KCQC 222153Z AUTO 25024G30KT 10SM CLR 23/M08 A3002 RMK AO2 PK
WND 22030/2142 SLP073 T02331083





000
SAUS45 KABQ 221858 COR
MTRCQC
METAR KCQC 221853Z AUTO 26015G26KT 10SM CLR 22/M09 A3008 RMK AO2 PK
WND 23029/1831 SLP093 T02171089





000
SAUS45 KABQ 221854
MTRTCS
METAR KTCS 221853Z AUTO 19008KT 10SM CLR 28/M07 A2999 RMK AO2 SLP070
T02781072 TSNO





000
SAUS45 KABQ 221754
MTRCQC
METAR KCQC 221753Z AUTO 23014G23KT 10SM CLR 22/M07 A3010 RMK AO2
SLP099 T02171067 10217 20072 58007





000
SAUS45 KABQ 221754
MTRTCS
METAR KTCS 221753Z AUTO 19009KT 10SM CLR 26/M06 A3001 RMK AO2 SLP081
T02561061 10256 20133 58013 TSNO





000
SAUS45 KABQ 221658 COR
MTRCQC
METAR KCQC 221653Z AUTO 25018G27KT 10SM CLR 20/M04 A3011 RMK AO2 PK
WND 24027/1651 SLP106 T02001039





000
SAUS45 KABQ 221656 COR
MTRCQC
METAR KCQC 221653Z AUTO 25018G27KT 10SM CLR 20/M04 A3011 RMK AO2 PK
WND 24027/1651 SLP106 T02001039





000
SAUS45 KABQ 221655 COR
MTRCQC
METAR KCQC 221653Z AUTO 25018G27KT 10SM CLR 20/M04 A3011 RMK AO2 PK
WND 24027/1651 SLP106 T02001039





000
SAUS45 KABQ 221654
MTRCQC
METAR KCQC 221653Z AUTO 25018G27KT 10SM CLR 20/M04 A3011 RMK AO2 PK
WND 24027/1651 SLP106 T02001039





000
SAUS45 KABQ 221654
MTRTCS
METAR KTCS 221653Z AUTO 19011G16KT 10SM CLR 24/M04 A3004 RMK AO2
SLP094 T02441044 TSNO





000
SAUS45 KABQ 221554
MTRTCS
METAR KTCS 221553Z AUTO 25008KT 10SM CLR 23/M04 A3005 RMK AO2 SLP099
T02331039 TSNO





000
SAUS45 KABQ 221454
MTRCQC
METAR KCQC 221453Z AUTO 26012KT 10SM CLR 17/M04 A3012 RMK AO2 SLP113
T01721044 51003





000
SAUS45 KABQ 221454
MTRTCS
METAR KTCS 221453Z AUTO 19011KT 10SM CLR 21/M02 A3006 RMK AO2 SLP097
T02111017 51015 TSNO





000
SAUS45 KABQ 221255
MTRTCS
METAR KTCS 221253Z AUTO 16004KT 10SM CLR 16/01 A3002 RMK AO2 SLP090
T01560006 TSNO





000
SAUS45 KABQ 221254
MTRCQC
METAR KCQC 221253Z AUTO 22005KT 10SM CLR 11/M06 A3012 RMK AO2 SLP114
T01061056





000
SAUS45 KABQ 221154
MTRTCS
METAR KTCS 221153Z AUTO 19004KT 10SM CLR 15/M02 A3000 RMK AO2 SLP082
T01501017 10211 20150 55000 TSNO





000
SAUS45 KABQ 221154
MTRCQC
METAR KCQC 221153Z AUTO 21004KT 10SM CLR 07/M07 A3011 RMK AO2 SLP118
T00721072 10139 20072 50008





000
SAUS45 KABQ 220954
MTRCQC
METAR KCQC 220953Z AUTO 33005KT 10SM CLR 11/M09 A3011 RMK AO2 SLP105
T01061089





000
SAUS45 KABQ 220954
MTRTCS
METAR KTCS 220953Z AUTO 16005KT 10SM CLR 16/M04 A3000 RMK AO2 SLP078
T01611044 TSNO





000
SAUS45 KABQ 220654
MTRCQC
METAR KCQC 220653Z AUTO 25013KT 10SM CLR 13/M07 A3010 RMK AO2 SLP097
T01331072 402440094





000
SAUS45 KABQ 220654
MTRTCS
METAR KTCS 220653Z AUTO 22007KT 10SM CLR 19/M06 A3000 RMK AO2 SLP076
T01941061 403000128 TSNO





000
SAUS45 KABQ 220558 COR
MTRCQC
METAR KCQC 220553Z AUTO 23012KT 10SM CLR 14/M07 A3011 RMK AO2 SLP101
T01391072 10228 20133 50003





000
SAUS45 KABQ 220454
MTRTCS
METAR KTCS 220453Z AUTO 21004KT 10SM CLR 19/M05 A3001 RMK AO2 SLP083
T01941050 TSNO





000
SAUS45 KABQ 220454
MTRCQC
METAR KCQC 220453Z AUTO 21012KT 10SM CLR 14/M07 A3012 RMK AO2 SLP109
T01391067





000
SAUS45 KABQ 220154
MTRTCS
METAR KTCS 220153Z AUTO 21013G22KT 10SM CLR 27/M13 A2996 RMK AO2
SLP062 T02671128 TSNO





000
SAUS45 KABQ 220154
MTRCQC
METAR KCQC 220153Z AUTO 20016KT 10SM CLR 18/M10 A3009 RMK AO2 PK WND
21028/0112 SLP097 T01831100





000
SAUS45 KABQ 212358 COR
MTRCQC
METAR KCQC 212353Z AUTO 19015G29KT 10SM CLR 23/M11 A3008 RMK AO2 PK
WND 21031/2313 SLP099 T02281106 10244 20222 56010





000
SAUS45 KABQ 212356 COR
MTRCQC
METAR KCQC 212353Z AUTO 19015G29KT 10SM CLR 23/M11 A3008 RMK AO2 PK
WND 21031/2313 SLP099 T02281106 10244 20222 56010





000
SAUS45 KABQ 212355 COR
MTRCQC
METAR KCQC 212353Z AUTO 19015G29KT 10SM CLR 23/M11 A3008 RMK AO2 PK
WND 21031/2313 SLP099 T02281106 10244 20222 56010





000
SAUS45 KABQ 212354
MTRTCS
METAR KTCS 212353Z AUTO 23016G26KT 10SM CLR 29/M12 A2995 RMK AO2 PK
WND 19027/2314 SLP065 T02891122 10300 20267 56013 TSNO





000
SAUS45 KABQ 212354
MTRCQC
METAR KCQC 212353Z AUTO 19015G29KT 10SM CLR 23/M11 A3008 RMK AO2 PK
WND 21031/2313 SLP099 T02281106 10244 20222 56010





000
SAUS45 KABQ 212155
MTRTCS
METAR KTCS 212153Z AUTO 19015G25KT 10SM CLR 29/M10 A2998 RMK AO2 PK
WND 18027/2055 SLP066 T02891100 TSNO





    US Dept of Commerce
    National Oceanic and Atmospheric Administration
    National Weather Service
    1325 East West Highway
    Silver Spring, MD 20910
    Page Author: NWS Internet Services Team
Disclaimer
Information Quality
Credits
Glossary
Privacy Policy
Freedom of Information Act (FOIA)
About Us
Career Opportunities